createdAt,value
2023-06-07T00:00:42.573Z,1.10
2023-06-07T00:03:10.852Z,1.10
2023-06-07T00:05:40.273Z,0.90
2023-06-07T00:08:08.507Z,1.10
2023-06-07T00:10:35.866Z,0.80
2023-06-07T00:13:03.088Z,0.80
2023-06-07T00:15:30.844Z,1.70
2023-06-07T00:18:01.415Z,0.70
2023-06-07T00:20:28.971Z,1.90
2023-06-07T00:22:59.493Z,0.90
2023-06-07T00:25:26.980Z,0.70
2023-06-07T00:27:54.407Z,1.40
2023-06-07T00:30:22.158Z,1.30
2023-06-07T00:32:49.502Z,1.20
2023-06-07T00:35:16.937Z,1.20
2023-06-07T00:37:44.709Z,1.90
2023-06-07T00:40:12.627Z,1.60
2023-06-07T00:42:39.926Z,2.00
2023-06-07T00:45:07.950Z,1.10
2023-06-07T00:47:38.013Z,1.10
2023-06-07T00:50:06.439Z,1.00
2023-06-07T00:52:35.343Z,0.90
2023-06-07T00:55:03.560Z,0.60
2023-06-07T00:57:30.916Z,0.60
2023-06-07T00:59:58.110Z,0.50
2023-06-07T01:02:27.525Z,0.50
2023-06-07T01:04:56.252Z,0.50
2023-06-07T01:07:26.029Z,0.50
2023-06-07T01:09:54.140Z,0.50
2023-06-07T01:12:21.773Z,0.50
2023-06-07T01:14:49.392Z,0.60
2023-06-07T01:17:18.208Z,0.60
2023-06-07T01:19:46.721Z,0.50
2023-06-07T01:22:15.270Z,0.50
2023-06-07T01:24:43.627Z,0.50
2023-06-07T01:27:11.283Z,0.50
2023-06-07T01:29:38.513Z,0.70
2023-06-07T01:32:09.324Z,0.50
2023-06-07T01:34:36.627Z,0.50
2023-06-07T01:37:03.984Z,0.50
2023-06-07T01:39:31.325Z,0.50
2023-06-07T01:41:58.936Z,0.50
2023-06-07T01:44:26.666Z,0.50
2023-06-07T01:46:53.929Z,0.40
2023-06-07T01:49:22.565Z,0.50
2023-06-07T01:51:49.813Z,0.60
2023-06-07T01:54:17.197Z,0.40
2023-06-07T01:56:47.037Z,0.60
2023-06-07T01:59:24.920Z,0.50
2023-06-07T02:02:17.441Z,0.60
2023-06-07T02:04:46.417Z,0.50
2023-06-07T02:07:17.964Z,0.80
2023-06-07T02:09:45.239Z,0.60
2023-06-07T02:12:12.490Z,0.50
2023-06-07T02:14:39.801Z,0.70
2023-06-07T02:17:08.783Z,0.50
2023-06-07T02:19:38.221Z,0.70
2023-06-07T02:22:06.908Z,0.70
2023-06-07T02:24:35.220Z,0.50
2023-06-07T02:27:03.765Z,0.60
2023-06-07T02:29:30.988Z,0.50
2023-06-07T02:31:59.124Z,0.50
2023-06-07T02:34:27.838Z,0.50
2023-06-07T02:36:55.102Z,0.50
2023-06-07T02:39:23.668Z,0.60
2023-06-07T02:41:50.887Z,0.50
2023-06-07T02:44:18.159Z,0.50
2023-06-07T02:46:45.761Z,0.50
2023-06-07T02:49:13.219Z,0.50
2023-06-07T02:51:40.918Z,0.60
2023-06-07T02:54:10.324Z,0.50
2023-06-07T02:56:37.804Z,0.60
2023-06-07T02:59:05.297Z,0.50
2023-06-07T03:01:35.481Z,0.40
2023-06-07T03:04:02.982Z,0.40
2023-06-07T03:06:31.198Z,0.50
2023-06-07T03:09:02.176Z,0.40
2023-06-07T03:11:30.735Z,0.50
2023-06-07T03:13:58.291Z,0.50
2023-06-07T03:16:29.408Z,0.60
2023-06-07T03:19:00.440Z,0.40
2023-06-07T03:21:27.854Z,0.60
2023-06-07T03:23:57.718Z,0.50
2023-06-07T03:26:25.068Z,0.60
2023-06-07T03:28:53.632Z,0.60
2023-06-07T03:31:21.422Z,0.50
2023-06-07T03:36:25.725Z,0.60
2023-06-07T03:38:54.524Z,0.60
2023-06-07T03:41:22.712Z,0.50
2023-06-07T03:43:53.864Z,0.50
2023-06-07T03:46:21.555Z,0.50
2023-06-07T03:48:52.659Z,0.50
2023-06-07T03:51:20.466Z,0.50
2023-06-07T03:53:48.383Z,0.40
2023-06-07T03:56:15.978Z,0.50
2023-06-07T03:58:46.374Z,0.50
2023-06-07T04:01:17.714Z,0.60
2023-06-07T04:03:45.420Z,0.60
2023-06-07T04:06:13.323Z,0.70
2023-06-07T04:08:41.069Z,0.70
2023-06-07T04:11:09.100Z,0.70
2023-06-07T04:13:36.412Z,0.60
2023-06-07T04:16:04.010Z,0.60
2023-06-07T04:18:31.318Z,0.70
2023-06-07T04:20:58.549Z,0.70
2023-06-07T04:23:26.353Z,0.70
2023-06-07T04:25:57.294Z,0.60
2023-06-07T04:28:24.971Z,0.60
2023-06-07T04:30:54.977Z,0.60
2023-06-07T04:33:23.713Z,0.80
2023-06-07T04:35:51.754Z,0.80
2023-06-07T04:38:23.280Z,1.20
2023-06-07T04:40:53.096Z,2.00
2023-06-07T04:43:43.400Z,1.60
2023-06-07T04:46:12.081Z,1.90
2023-06-07T04:48:42.297Z,2.50
2023-06-07T04:51:11.492Z,1.80
2023-06-07T04:53:44.212Z,2.30
2023-06-07T04:56:14.149Z,1.70
2023-06-07T04:58:41.750Z,1.90
2023-06-07T05:01:11.936Z,1.60
2023-06-07T05:03:43.325Z,1.50
2023-06-07T05:06:12.355Z,1.00
2023-06-07T05:08:40.788Z,0.90
2023-06-07T05:11:08.120Z,0.90
2023-06-07T05:13:35.441Z,0.70
2023-06-07T05:16:04.223Z,0.80
2023-06-07T05:18:31.933Z,0.90
2023-06-07T05:20:59.562Z,0.80
2023-06-07T05:23:28.092Z,1.00
2023-06-07T05:25:56.335Z,0.90
2023-06-07T05:28:23.790Z,0.70
2023-06-07T05:30:54.489Z,0.70
2023-06-07T05:33:22.391Z,0.70
2023-06-07T05:35:49.779Z,0.70
2023-06-07T05:38:18.616Z,0.80
2023-06-07T05:40:45.956Z,0.60
2023-06-07T05:43:13.336Z,0.80
2023-06-07T05:45:41.905Z,0.60
2023-06-07T05:48:09.389Z,0.70
2023-06-07T05:50:36.856Z,0.60
2023-06-07T05:53:04.109Z,0.50
2023-06-07T05:55:31.587Z,0.70
2023-06-07T05:57:59.293Z,0.60
2023-06-07T06:00:26.563Z,0.60
2023-06-07T06:02:54.602Z,0.80
2023-06-07T06:05:22.446Z,0.50
2023-06-07T06:07:50.213Z,0.50
2023-06-07T06:10:17.952Z,0.60
2023-06-07T06:12:45.152Z,0.50
2023-06-07T06:15:12.430Z,0.40
2023-06-07T06:17:39.692Z,1.40
2023-06-07T06:20:09.229Z,0.50
2023-06-07T06:22:36.501Z,0.50
2023-06-07T06:25:04.656Z,0.50
2023-06-07T06:27:32.042Z,0.50
2023-06-07T06:29:59.414Z,0.50
2023-06-07T06:32:26.803Z,0.60
2023-06-07T06:34:54.069Z,0.50
2023-06-07T06:37:21.993Z,0.60
2023-06-07T06:39:49.554Z,0.60
2023-06-07T06:42:16.872Z,0.60
2023-06-07T06:47:29.498Z,0.60
2023-06-07T06:49:57.134Z,0.60
2023-06-07T06:52:25.490Z,0.60
2023-06-07T06:54:52.674Z,0.60
2023-06-07T06:57:19.958Z,0.60
2023-06-07T06:59:50.284Z,0.50
2023-06-07T07:02:17.997Z,0.70
2023-06-07T07:04:45.359Z,0.50
2023-06-07T07:07:12.642Z,0.50
2023-06-07T07:09:39.889Z,0.60
2023-06-07T07:12:08.344Z,0.50
2023-06-07T07:14:35.827Z,0.60
2023-06-07T07:17:03.231Z,0.60
2023-06-07T07:19:30.581Z,0.50
2023-06-07T07:21:57.835Z,0.50
2023-06-07T07:24:25.231Z,0.50
2023-06-07T07:26:52.514Z,0.50
2023-06-07T07:29:20.537Z,0.30
2023-06-07T07:31:47.743Z,0.60
2023-06-07T07:34:15.205Z,0.70
2023-06-07T07:36:45.437Z,0.60
2023-06-07T07:39:12.923Z,0.60
2023-06-07T07:41:43.099Z,0.60
2023-06-07T07:44:10.600Z,0.50
2023-06-07T07:48:48.596Z,0.60
2023-06-07T07:51:16.735Z,0.50
2023-06-07T07:53:44.005Z,0.60
2023-06-07T07:56:11.327Z,0.60
2023-06-07T07:58:38.785Z,0.70
2023-06-07T08:01:09.775Z,0.50
2023-06-07T08:03:37.190Z,0.60
2023-06-07T08:06:04.959Z,0.60
2023-06-07T08:08:32.944Z,0.60
2023-06-07T08:11:01.462Z,0.50
2023-06-07T08:13:29.780Z,0.50
2023-06-07T08:15:57.138Z,0.50
2023-06-07T08:18:24.612Z,0.60
2023-06-07T08:20:52.265Z,0.60
2023-06-07T08:23:19.508Z,0.50
2023-06-07T08:25:46.922Z,0.60
2023-06-07T08:28:14.162Z,0.60
2023-06-07T08:30:42.080Z,0.80
2023-06-07T08:33:09.360Z,0.60
2023-06-07T08:35:36.678Z,0.60
2023-06-07T08:38:03.916Z,0.50
2023-06-07T08:40:31.222Z,0.60
2023-06-07T08:42:58.579Z,0.60
2023-06-07T08:45:26.159Z,0.60
2023-06-07T08:47:53.480Z,0.60
2023-06-07T08:50:21.027Z,0.60
2023-06-07T08:52:49.313Z,0.50
2023-06-07T08:55:16.655Z,0.50
2023-06-07T08:57:47.052Z,0.50
2023-06-07T09:00:14.949Z,0.50
2023-06-07T09:02:42.747Z,0.50
2023-06-07T09:05:11.779Z,0.60
2023-06-07T09:07:39.008Z,0.50
2023-06-07T09:10:07.102Z,0.50
2023-06-07T09:12:36.590Z,0.70
2023-06-07T09:15:06.218Z,0.50
2023-06-07T09:17:56.348Z,0.60
2023-06-07T09:20:25.429Z,0.60
2023-06-07T09:23:10.325Z,0.50
2023-06-07T09:25:39.087Z,0.50
2023-06-07T09:28:11.094Z,0.60
2023-06-07T09:30:57.782Z,0.70
2023-06-07T09:33:35.051Z,0.70
2023-06-07T09:36:10.370Z,0.60
2023-06-07T09:38:37.870Z,0.70
2023-06-07T09:41:06.817Z,0.60
2023-06-07T09:43:55.785Z,0.60
2023-06-07T09:46:23.400Z,0.50
2023-06-07T09:48:54.515Z,0.60
2023-06-07T09:51:22.225Z,0.60
2023-06-07T09:53:52.802Z,0.50
2023-06-07T09:56:21.212Z,0.70
2023-06-07T09:59:08.384Z,0.50
2023-06-07T10:01:38.967Z,0.60
2023-06-07T10:04:07.948Z,0.70
2023-06-07T10:06:36.568Z,0.70
2023-06-07T10:09:05.615Z,0.60
2023-06-07T10:11:37.551Z,0.80
2023-06-07T10:14:12.069Z,0.70
2023-06-07T10:16:43.796Z,0.70
2023-06-07T10:19:28.983Z,0.80
2023-06-07T10:21:57.060Z,0.60
2023-06-07T10:24:33.990Z,0.70
2023-06-07T10:27:09.283Z,0.60
2023-06-07T10:29:42.925Z,0.70
2023-06-07T10:32:31.787Z,0.70
2023-06-07T10:34:59.070Z,0.60
2023-06-07T10:37:31.911Z,0.40
2023-06-07T10:39:59.395Z,0.50
2023-06-07T10:42:26.754Z,0.50
2023-06-07T10:44:55.024Z,0.40
2023-06-07T10:47:22.646Z,0.50
2023-06-07T10:49:50.742Z,0.40
2023-06-07T10:52:18.293Z,0.40
2023-06-07T10:54:46.309Z,1.00
2023-06-07T10:57:13.829Z,0.40
2023-06-07T10:59:41.279Z,0.40
2023-06-07T11:02:30.617Z,0.50
2023-06-07T11:04:58.901Z,0.50
2023-06-07T11:07:32.078Z,0.60
2023-06-07T11:10:06.725Z,0.70
2023-06-07T11:12:41.948Z,1.10
2023-06-07T11:15:21.762Z,0.60
2023-06-07T11:17:53.673Z,0.70
2023-06-07T11:20:36.877Z,0.70
2023-06-07T11:23:29.952Z,0.60
2023-06-07T11:26:07.429Z,0.50
2023-06-07T11:28:38.933Z,0.70
2023-06-07T11:31:11.607Z,0.60
2023-06-07T11:33:42.322Z,0.90
2023-06-07T11:36:10.926Z,0.70
2023-06-07T11:38:38.633Z,0.70
2023-06-07T11:41:06.988Z,0.60
2023-06-07T11:43:34.426Z,0.60
2023-06-07T11:46:01.846Z,0.70
2023-06-07T11:48:30.260Z,0.60
2023-06-07T11:50:58.779Z,0.60
2023-06-07T11:53:30.670Z,0.60
2023-06-07T11:56:05.395Z,0.60
2023-06-07T11:58:33.239Z,0.60
2023-06-07T12:01:00.558Z,0.50
2023-06-07T12:03:28.276Z,0.70
2023-06-07T12:05:56.041Z,0.50
2023-06-07T12:08:23.967Z,0.60
2023-06-07T12:10:55.069Z,0.60
2023-06-07T12:13:23.101Z,0.50
2023-06-07T12:15:54.812Z,0.70
2023-06-07T12:18:29.363Z,0.50
2023-06-07T12:21:10.457Z,0.50
2023-06-07T12:23:39.176Z,0.80
2023-06-07T12:26:11.450Z,0.50
2023-06-07T12:28:40.895Z,0.60
2023-06-07T12:31:15.905Z,0.90
2023-06-07T12:33:57.422Z,0.70
2023-06-07T12:36:27.304Z,1.40
2023-06-07T12:38:54.789Z,0.60
2023-06-07T12:41:25.289Z,1.00
2023-06-07T12:43:52.796Z,0.70
2023-06-07T12:46:20.133Z,0.60
2023-06-07T12:48:47.591Z,0.60
2023-06-07T12:51:14.931Z,0.60
2023-06-07T12:53:42.727Z,0.80
2023-06-07T12:56:10.082Z,0.80
2023-06-07T12:58:37.681Z,0.70
2023-06-07T13:01:05.031Z,0.70
2023-06-07T13:03:32.557Z,0.70
2023-06-07T13:05:59.904Z,0.60
2023-06-07T13:08:27.262Z,0.60
2023-06-07T13:10:54.459Z,0.70
2023-06-07T13:13:23.256Z,0.60
2023-06-07T13:15:50.735Z,0.60
2023-06-07T13:18:18.356Z,0.60
2023-06-07T13:20:45.777Z,0.60
2023-06-07T13:23:13.093Z,0.80
2023-06-07T13:25:40.598Z,0.70
2023-06-07T13:28:07.887Z,0.60
2023-06-07T13:30:35.212Z,0.60
2023-06-07T13:33:04.236Z,0.70
2023-06-07T13:35:35.919Z,0.70
2023-06-07T13:38:05.086Z,0.70
2023-06-07T13:40:32.354Z,0.60
2023-06-07T13:42:59.547Z,0.70
2023-06-07T13:45:26.958Z,0.60
2023-06-07T13:47:54.390Z,0.60
2023-06-07T13:50:21.656Z,0.60
2023-06-07T13:52:48.959Z,0.60
2023-06-07T13:55:16.471Z,0.60
2023-06-07T13:57:43.844Z,0.70
2023-06-07T14:00:11.988Z,0.70
2023-06-07T14:02:39.537Z,0.60
2023-06-07T14:05:07.798Z,0.60
2023-06-07T14:07:35.429Z,0.70
2023-06-07T14:10:02.932Z,0.70
2023-06-07T14:12:30.566Z,0.60
2023-06-07T14:14:57.811Z,0.60
2023-06-07T14:17:25.092Z,1.10
2023-06-07T14:19:52.910Z,0.70
2023-06-07T14:22:20.173Z,0.60
2023-06-07T14:24:47.489Z,0.70
2023-06-07T14:27:16.121Z,0.70
2023-06-07T14:29:43.623Z,0.60
2023-06-07T14:32:11.093Z,0.70
2023-06-07T14:34:38.310Z,0.60
2023-06-07T14:37:05.810Z,0.70
2023-06-07T14:39:33.071Z,0.80
2023-06-07T14:42:00.580Z,0.90
2023-06-07T14:44:27.880Z,0.70
2023-06-07T14:46:55.284Z,0.60
2023-06-07T14:49:22.498Z,0.70
2023-06-07T14:51:49.788Z,1.20
2023-06-07T14:54:17.062Z,0.60
2023-06-07T14:56:44.708Z,0.60
2023-06-07T14:59:14.176Z,0.70
2023-06-07T15:01:42.301Z,1.00
2023-06-07T15:04:09.966Z,0.60
2023-06-07T15:06:37.652Z,0.60
2023-06-07T15:09:05.279Z,0.50
2023-06-07T15:11:32.469Z,0.60
2023-06-07T15:13:59.918Z,0.50
2023-06-07T15:16:27.766Z,0.60
2023-06-07T15:18:56.281Z,0.60
2023-06-07T15:21:23.614Z,0.60
2023-06-07T15:23:51.364Z,0.50
2023-06-07T15:26:19.096Z,0.70
2023-06-07T15:28:46.434Z,0.60
2023-06-07T15:31:13.762Z,0.80
2023-06-07T15:33:41.215Z,0.60
2023-06-07T15:36:08.477Z,0.80
2023-06-07T15:38:38.731Z,0.60
2023-06-07T15:41:09.375Z,0.60
2023-06-07T15:43:37.190Z,0.70
2023-06-07T15:46:04.520Z,0.80
2023-06-07T15:48:31.787Z,0.70
2023-06-07T15:50:59.016Z,0.70
2023-06-07T15:53:26.279Z,0.70
2023-06-07T15:55:53.490Z,0.70
2023-06-07T15:58:20.905Z,1.10
2023-06-07T16:00:49.464Z,0.70
2023-06-07T16:03:17.445Z,0.80
2023-06-07T16:05:44.992Z,0.70
2023-06-07T16:08:14.350Z,0.70
2023-06-07T16:10:43.430Z,0.70
2023-06-07T16:13:10.988Z,0.90
2023-06-07T16:15:38.453Z,0.60
2023-06-07T16:18:06.315Z,0.70
2023-06-07T16:20:33.896Z,1.10
2023-06-07T16:23:01.707Z,0.80
2023-06-07T16:25:29.203Z,0.60
2023-06-07T16:27:56.671Z,0.70
2023-06-07T16:30:23.875Z,0.60
2023-06-07T16:32:51.182Z,0.60
2023-06-07T16:35:18.456Z,0.70
2023-06-07T16:37:46.655Z,0.60
2023-06-07T16:40:15.085Z,0.70
2023-06-07T16:42:43.491Z,0.50
2023-06-07T16:45:11.980Z,2.50
2023-06-07T16:47:39.298Z,1.00
2023-06-07T16:50:07.713Z,1.10
2023-06-07T16:52:35.337Z,1.00
2023-06-07T16:55:02.550Z,1.10
2023-06-07T16:57:29.804Z,0.80
2023-06-07T16:59:59.039Z,0.70
2023-06-07T17:02:26.383Z,0.70
2023-06-07T17:04:53.876Z,1.50
2023-06-07T17:07:21.302Z,0.70
2023-06-07T17:09:49.174Z,0.60
2023-06-07T17:12:16.619Z,1.90
2023-06-07T17:14:49.429Z,16.10
2023-06-07T17:17:17.329Z,14.50
2023-06-07T17:19:44.778Z,3.80
2023-06-07T17:22:12.174Z,1.70
2023-06-07T17:24:39.445Z,0.90
2023-06-07T17:27:08.587Z,0.90
2023-06-07T17:29:36.128Z,1.70
2023-06-07T17:32:03.723Z,0.80
2023-06-07T17:34:31.172Z,2.00
2023-06-07T17:36:58.460Z,1.20
2023-06-07T17:39:25.914Z,0.70
2023-06-07T17:41:53.230Z,0.80
2023-06-07T17:44:22.792Z,0.80
2023-06-07T17:46:50.059Z,0.90
2023-06-07T17:49:19.683Z,0.80
2023-06-07T17:51:48.677Z,0.70
2023-06-07T17:54:15.969Z,0.70
2023-06-07T17:56:44.023Z,0.90
2023-06-07T17:59:11.212Z,0.70
2023-06-07T18:01:42.939Z,0.80
2023-06-07T18:04:12.303Z,0.80
2023-06-07T18:06:40.590Z,0.70
2023-06-07T18:09:08.063Z,0.80
2023-06-07T18:11:35.796Z,0.70
2023-06-07T18:14:03.148Z,0.80
2023-06-07T18:16:30.886Z,0.70
2023-06-07T18:18:58.596Z,0.70
2023-06-07T18:21:26.175Z,0.60
2023-06-07T18:23:53.539Z,0.70
2023-06-07T18:26:22.763Z,0.80
2023-06-07T18:28:50.854Z,0.80
2023-06-07T18:31:18.616Z,0.70
2023-06-07T18:33:45.997Z,0.70
2023-06-07T18:36:13.238Z,0.80
2023-06-07T18:38:40.884Z,0.60
2023-06-07T18:41:08.103Z,0.80
2023-06-07T18:43:35.403Z,0.70
2023-06-07T18:46:02.893Z,0.80
2023-06-07T18:48:30.237Z,0.80
2023-06-07T18:50:57.582Z,0.60
2023-06-07T18:53:25.021Z,0.70
2023-06-07T18:55:52.399Z,0.60
2023-06-07T18:58:20.087Z,0.70
2023-06-07T19:00:49.596Z,0.80
2023-06-07T19:03:17.270Z,0.70
2023-06-07T19:05:44.699Z,0.60
2023-06-07T19:08:12.406Z,0.70
2023-06-07T19:10:39.608Z,1.00
2023-06-07T19:13:06.900Z,0.60
2023-06-07T19:15:34.280Z,0.70
2023-06-07T19:18:05.224Z,0.60
2023-06-07T19:20:35.182Z,0.70
2023-06-07T19:23:02.466Z,0.60
2023-06-07T19:25:29.754Z,0.70
2023-06-07T19:27:57.164Z,0.70
2023-06-07T19:30:24.396Z,0.80
2023-06-07T19:32:51.845Z,0.70
2023-06-07T19:35:19.278Z,0.70
2023-06-07T19:37:46.738Z,0.70
2023-06-07T19:40:17.387Z,0.60
2023-06-07T19:42:44.818Z,0.70
2023-06-07T19:45:12.568Z,0.60
2023-06-07T19:47:40.074Z,0.70
2023-06-07T19:50:08.010Z,0.60
2023-06-07T19:52:35.970Z,0.90
2023-06-07T19:55:03.985Z,0.60
2023-06-07T19:57:31.473Z,0.50
2023-06-07T19:59:58.713Z,0.70
2023-06-07T20:02:26.129Z,0.90
2023-06-07T20:05:32.178Z,1.20
2023-06-07T20:07:59.457Z,6.70
2023-06-07T20:10:26.850Z,2.40
2023-06-07T20:12:54.363Z,0.80
2023-06-07T20:15:21.569Z,0.80
2023-06-07T20:17:48.937Z,1.00
2023-06-07T20:20:16.734Z,0.70
2023-06-07T20:22:43.974Z,0.70
2023-06-07T20:25:11.498Z,0.70
2023-06-07T20:27:38.956Z,0.70
2023-06-07T20:30:07.322Z,0.80
2023-06-07T20:32:34.986Z,0.60
2023-06-07T20:35:02.395Z,0.80
2023-06-07T20:37:29.711Z,1.20
2023-06-07T20:39:57.525Z,0.80
2023-06-07T20:42:24.717Z,0.80
2023-06-07T20:44:53.280Z,0.70
2023-06-07T20:47:21.631Z,0.60
2023-06-07T20:49:49.343Z,0.70
2023-06-07T20:52:16.753Z,0.70
2023-06-07T20:54:44.348Z,0.70
2023-06-07T20:57:11.725Z,0.70
2023-06-07T20:59:48.409Z,0.70
2023-06-07T21:02:15.822Z,0.60
2023-06-07T21:04:43.022Z,0.60
2023-06-07T21:07:10.258Z,0.90
2023-06-07T21:09:37.550Z,0.40
2023-06-07T21:12:07.326Z,0.60
2023-06-07T21:14:34.755Z,0.50
2023-06-07T21:17:01.999Z,0.60
2023-06-07T21:19:29.233Z,0.70
2023-06-07T21:21:56.455Z,0.60
2023-06-07T21:24:23.831Z,0.70
2023-06-07T21:26:51.225Z,0.60
2023-06-07T21:29:18.844Z,0.70
2023-06-07T21:31:46.226Z,0.80
2023-06-07T21:34:16.696Z,0.50
2023-06-07T21:36:43.880Z,0.80
2023-06-07T21:39:11.134Z,0.60
2023-06-07T21:41:38.810Z,0.80
2023-06-07T21:44:06.035Z,0.70
2023-06-07T21:46:33.484Z,0.60
2023-06-07T21:49:00.909Z,1.00
2023-06-07T21:51:28.270Z,0.60
2023-06-07T21:53:55.578Z,0.70
2023-06-07T21:56:22.794Z,0.70
2023-06-07T21:58:50.047Z,0.60
2023-06-07T22:01:17.415Z,1.00
2023-06-07T22:03:44.950Z,0.70
2023-06-07T22:06:12.732Z,0.60
2023-06-07T22:08:42.165Z,0.80
2023-06-07T22:11:09.368Z,0.70
2023-06-07T22:13:38.176Z,0.70
2023-06-07T22:16:06.049Z,0.60
2023-06-07T22:18:36.702Z,0.70
2023-06-07T22:21:04.351Z,0.70
2023-06-07T22:23:32.213Z,0.70
2023-06-07T22:26:01.093Z,0.70
2023-06-07T22:28:30.919Z,0.70
2023-06-07T22:30:58.735Z,0.50
2023-06-07T22:33:26.065Z,0.60
2023-06-07T22:35:58.151Z,0.60
2023-06-07T22:38:25.992Z,0.60
2023-06-07T22:40:53.290Z,0.60
2023-06-07T22:43:20.773Z,0.60
2023-06-07T22:45:48.044Z,0.60
2023-06-07T22:48:16.794Z,0.70
2023-06-07T22:50:44.080Z,0.60
2023-06-07T22:53:13.413Z,0.70
2023-06-07T22:55:41.865Z,0.60
2023-06-07T22:58:09.188Z,0.70
2023-06-07T23:00:36.951Z,0.60
2023-06-07T23:03:05.235Z,0.60
2023-06-07T23:05:33.702Z,0.60
2023-06-07T23:08:01.004Z,0.50
2023-06-07T23:10:37.306Z,0.50
2023-06-07T23:13:16.571Z,0.70
2023-06-07T23:15:46.310Z,0.60
2023-06-07T23:18:16.130Z,0.50
2023-06-07T23:20:46.851Z,0.70
2023-06-07T23:23:14.132Z,0.60
2023-06-07T23:25:41.864Z,0.60
2023-06-07T23:28:09.125Z,0.70
2023-06-07T23:30:36.483Z,0.50
2023-06-07T23:33:04.719Z,0.70
2023-06-07T23:35:32.245Z,0.60
2023-06-07T23:38:01.208Z,0.50
2023-06-07T23:40:28.457Z,0.60
2023-06-07T23:42:57.766Z,0.70
2023-06-07T23:45:27.468Z,0.60
2023-06-07T23:47:54.849Z,0.50
2023-06-07T23:50:22.200Z,0.70
2023-06-07T23:52:49.531Z,0.60
2023-06-07T23:55:16.767Z,0.60
2023-06-07T23:57:43.963Z,0.60
